createdAt,value
2023-02-18T00:00:15.330Z,9.23
2023-02-18T00:00:47.065Z,8.97
2023-02-18T00:01:20.984Z,9.20
2023-02-18T00:01:52.674Z,9.70
2023-02-18T00:02:24.475Z,9.20
2023-02-18T00:02:56.372Z,9.03
2023-02-18T00:03:30.149Z,8.97
2023-02-18T00:04:02.409Z,8.53
2023-02-18T00:04:34.258Z,8.43
2023-02-18T00:05:07.590Z,9.03
2023-02-18T00:05:39.296Z,9.10
2023-02-18T00:06:32.359Z,8.83
2023-02-18T00:07:04.076Z,8.70
2023-02-18T00:07:37.673Z,9.07
2023-02-18T00:08:09.359Z,8.97
2023-02-18T00:08:42.365Z,8.53
2023-02-18T00:09:14.161Z,9.50
2023-02-18T00:09:45.853Z,9.27
2023-02-18T00:10:17.710Z,8.77
2023-02-18T00:10:49.579Z,8.87
2023-02-18T00:11:21.994Z,9.30
2023-02-18T00:11:53.807Z,9.07
2023-02-18T00:12:25.468Z,9.13
2023-02-18T00:12:57.208Z,9.20
2023-02-18T00:13:28.888Z,8.97
2023-02-18T00:14:02.943Z,8.67
2023-02-18T00:14:34.584Z,9.00
2023-02-18T00:15:06.786Z,9.23
2023-02-18T00:15:39.942Z,9.07
2023-02-18T00:16:12.723Z,9.53
2023-02-18T00:16:45.949Z,9.27
2023-02-18T00:17:17.944Z,9.70
2023-02-18T00:17:49.646Z,9.13
2023-02-18T00:18:21.310Z,9.40
2023-02-18T00:18:58.118Z,9.50
2023-02-18T00:19:29.807Z,9.43
2023-02-18T00:20:01.516Z,9.93
2023-02-18T00:20:36.343Z,9.40
2023-02-18T00:21:09.122Z,9.97
2023-02-18T00:21:43.596Z,9.93
2023-02-18T00:22:15.438Z,9.70
2023-02-18T00:22:47.122Z,9.37
2023-02-18T00:23:18.789Z,10.00
2023-02-18T00:23:51.241Z,9.70
2023-02-18T00:24:22.978Z,9.30
2023-02-18T00:24:54.639Z,9.00
2023-02-18T00:25:26.361Z,9.93
2023-02-18T00:26:09.904Z,9.93
2023-02-18T00:26:42.856Z,9.60
2023-02-18T00:27:14.543Z,10.20
2023-02-18T00:27:46.216Z,9.47
2023-02-18T00:28:17.882Z,9.33
2023-02-18T00:28:51.532Z,9.73
2023-02-18T00:29:23.332Z,9.10
2023-02-18T00:29:55.058Z,9.27
2023-02-18T00:30:28.636Z,8.70
2023-02-18T00:31:06.020Z,9.43
2023-02-18T00:31:40.729Z,9.07
2023-02-18T00:32:12.603Z,10.33
2023-02-18T00:32:44.289Z,9.90
2023-02-18T00:33:15.982Z,9.70
2023-02-18T00:33:47.651Z,9.83
2023-02-18T00:34:19.337Z,9.17
2023-02-18T00:34:51.052Z,9.97
2023-02-18T00:35:22.846Z,9.97
2023-02-18T00:36:01.629Z,10.13
2023-02-18T00:36:34.142Z,10.07
2023-02-18T00:37:05.811Z,9.93
2023-02-18T00:37:37.525Z,9.50
2023-02-18T00:38:09.246Z,9.23
2023-02-18T00:38:45.921Z,9.63
2023-02-18T00:39:17.683Z,10.03
2023-02-18T00:39:49.411Z,9.87
2023-02-18T00:40:21.106Z,10.07
2023-02-18T00:40:52.795Z,10.50
2023-02-18T00:41:26.860Z,10.23
2023-02-18T00:41:58.541Z,10.07
2023-02-18T00:42:30.244Z,9.67
2023-02-18T00:43:01.953Z,9.80
2023-02-18T00:43:33.626Z,9.87
2023-02-18T00:44:06.025Z,9.43
2023-02-18T00:44:37.722Z,9.83
2023-02-18T00:45:10.537Z,10.00
2023-02-18T00:45:42.257Z,10.33
2023-02-18T00:46:14.073Z,9.67
2023-02-18T00:46:48.269Z,9.73
2023-02-18T00:47:20.381Z,10.73
2023-02-18T00:47:52.042Z,10.30
2023-02-18T00:48:23.801Z,9.97
2023-02-18T00:48:55.674Z,9.43
2023-02-18T00:49:27.380Z,10.80
2023-02-18T00:49:59.050Z,10.27
2023-02-18T00:50:30.741Z,9.30
2023-02-18T00:51:05.228Z,9.80
2023-02-18T00:51:37.412Z,10.60
2023-02-18T00:52:09.100Z,10.10
2023-02-18T00:52:40.767Z,10.27
2023-02-18T00:53:12.716Z,10.10
2023-02-18T00:53:44.391Z,10.17
2023-02-18T00:54:16.097Z,10.10
2023-02-18T00:54:48.018Z,10.30
2023-02-18T00:55:19.723Z,9.67
2023-02-18T00:55:51.422Z,9.67
2023-02-18T00:56:23.620Z,10.17
2023-02-18T00:56:55.273Z,10.13
2023-02-18T00:57:26.973Z,10.33
2023-02-18T00:57:58.667Z,9.70
2023-02-18T00:58:31.186Z,10.17
2023-02-18T00:59:02.897Z,10.33
2023-02-18T00:59:34.548Z,9.90
2023-02-18T01:00:07.909Z,9.50
2023-02-18T01:00:39.583Z,9.83
2023-02-18T01:01:11.869Z,9.60
2023-02-18T01:01:43.795Z,9.90
2023-02-18T01:02:15.893Z,10.20
2023-02-18T01:02:47.598Z,10.37
2023-02-18T01:03:19.368Z,10.50
2023-02-18T01:03:51.095Z,9.53
2023-02-18T01:04:22.786Z,10.00
2023-02-18T01:04:54.503Z,9.57
2023-02-18T01:05:26.363Z,9.93
2023-02-18T01:05:58.084Z,9.77
2023-02-18T01:06:29.818Z,10.43
2023-02-18T01:07:01.569Z,9.97
2023-02-18T01:07:33.232Z,10.07
2023-02-18T01:08:06.168Z,10.53
2023-02-18T01:08:39.471Z,10.77
2023-02-18T01:09:11.133Z,10.43
2023-02-18T01:09:42.792Z,10.10
2023-02-18T01:10:16.443Z,10.77
2023-02-18T01:10:52.669Z,11.30
2023-02-18T01:11:24.769Z,10.60
2023-02-18T01:11:56.462Z,9.80
2023-02-18T01:12:28.138Z,9.70
2023-02-18T01:13:00.284Z,9.67
2023-02-18T01:13:32.295Z,9.90
2023-02-18T01:14:04.029Z,10.40
2023-02-18T01:14:35.737Z,11.30
2023-02-18T01:15:08.291Z,10.63
2023-02-18T01:15:42.070Z,10.47
2023-02-18T01:16:13.824Z,10.50
2023-02-18T01:16:45.541Z,10.60
2023-02-18T01:17:17.408Z,10.10
2023-02-18T01:17:49.165Z,9.73
2023-02-18T01:18:22.340Z,9.70
2023-02-18T01:18:54.033Z,10.37
2023-02-18T01:19:27.175Z,10.07
2023-02-18T01:19:59.898Z,10.57
2023-02-18T01:20:31.717Z,11.10
2023-02-18T01:21:05.223Z,10.37
2023-02-18T01:21:36.904Z,10.10
2023-02-18T01:22:08.866Z,9.87
2023-02-18T01:22:41.255Z,10.13
2023-02-18T01:23:14.790Z,10.57
2023-02-18T01:23:46.492Z,10.47
2023-02-18T01:24:18.225Z,10.33
2023-02-18T01:24:49.945Z,10.07
2023-02-18T01:25:21.789Z,10.83
2023-02-18T01:25:54.462Z,11.17
2023-02-18T01:26:26.143Z,10.77
2023-02-18T01:26:58.459Z,10.27
2023-02-18T01:27:30.556Z,11.30
2023-02-18T01:28:04.763Z,10.70
2023-02-18T01:28:36.999Z,10.57
2023-02-18T01:29:08.688Z,10.30
2023-02-18T01:29:40.341Z,10.70
2023-02-18T01:30:15.714Z,10.20
2023-02-18T01:30:47.425Z,10.03
2023-02-18T01:31:19.233Z,10.00
2023-02-18T01:31:51.344Z,10.40
2023-02-18T01:32:23.381Z,10.77
2023-02-18T01:32:56.379Z,10.33
2023-02-18T01:33:28.047Z,10.70
2023-02-18T01:33:59.726Z,10.73
2023-02-18T01:34:31.391Z,10.50
2023-02-18T01:35:05.441Z,10.47
2023-02-18T01:35:40.136Z,11.13
2023-02-18T01:36:12.792Z,10.03
2023-02-18T01:36:44.494Z,10.20
2023-02-18T01:37:16.537Z,10.57
2023-02-18T01:37:48.598Z,10.50
2023-02-18T01:38:20.265Z,10.03
2023-02-18T01:38:53.407Z,10.57
2023-02-18T01:39:25.151Z,10.53
2023-02-18T01:39:56.827Z,11.00
2023-02-18T01:40:29.878Z,11.17
2023-02-18T01:41:02.018Z,10.43
2023-02-18T01:41:34.071Z,10.00
2023-02-18T01:42:06.220Z,10.63
2023-02-18T01:42:38.258Z,10.40
2023-02-18T01:43:12.186Z,10.03
2023-02-18T01:43:43.871Z,10.63
2023-02-18T01:44:18.342Z,10.80
2023-02-18T01:44:50.717Z,9.97
2023-02-18T01:45:34.232Z,10.37
2023-02-18T01:46:22.342Z,10.43
2023-02-18T01:46:55.053Z,10.50
2023-02-18T01:47:26.792Z,10.07
2023-02-18T01:47:58.958Z,10.00
2023-02-18T01:48:50.699Z,10.30
2023-02-18T01:49:32.738Z,9.93
2023-02-18T01:50:04.953Z,9.77
2023-02-18T01:50:41.578Z,10.07
2023-02-18T01:51:16.209Z,10.30
2023-02-18T01:51:55.687Z,10.70
2023-02-18T01:52:27.996Z,10.97
2023-02-18T01:53:00.733Z,10.57
2023-02-18T01:53:53.001Z,10.07
2023-02-18T01:54:30.144Z,10.37
2023-02-18T01:55:01.914Z,10.50
2023-02-18T01:55:35.820Z,10.60
2023-02-18T01:56:12.550Z,10.43
2023-02-18T01:56:56.366Z,10.20
2023-02-18T01:57:33.185Z,10.90
2023-02-18T01:58:05.059Z,10.87
2023-02-18T01:58:37.879Z,10.67
2023-02-18T01:59:19.397Z,10.07
2023-02-18T02:00:08.208Z,10.80
2023-02-18T02:00:40.686Z,11.17
2023-02-18T02:01:12.585Z,10.33
2023-02-18T02:01:46.070Z,11.33
2023-02-18T02:02:21.281Z,10.90
2023-02-18T02:02:53.828Z,11.00
2023-02-18T02:03:25.592Z,10.60
2023-02-18T02:03:57.303Z,10.90
2023-02-18T02:04:29.324Z,11.23
2023-02-18T02:05:01.379Z,10.60
2023-02-18T02:05:34.498Z,10.27
2023-02-18T02:06:20.409Z,11.17
2023-02-18T02:06:52.166Z,10.73
2023-02-18T02:07:26.020Z,10.97
2023-02-18T02:07:58.390Z,10.27
2023-02-18T02:08:30.522Z,11.17
2023-02-18T02:09:05.662Z,11.20
2023-02-18T02:09:41.087Z,10.93
2023-02-18T02:10:15.115Z,11.57
2023-02-18T02:11:01.551Z,10.97
2023-02-18T02:12:02.420Z,10.00
2023-02-18T02:13:07.986Z,10.27
2023-02-18T02:14:15.032Z,10.27
2023-02-18T02:15:05.391Z,10.27
2023-02-18T02:16:10.870Z,10.70
2023-02-18T02:17:03.074Z,9.47
2023-02-18T02:17:56.161Z,10.47
2023-02-18T02:19:12.986Z,10.07
2023-02-18T02:20:05.941Z,10.60
2023-02-18T02:21:02.586Z,10.47
2023-02-18T02:21:37.110Z,10.43
2023-02-18T02:22:23.958Z,11.23
2023-02-18T02:22:58.223Z,10.80
2023-02-18T02:23:57.627Z,10.57
2023-02-18T02:24:58.229Z,10.33
2023-02-18T02:26:00.757Z,10.20
2023-02-18T02:27:00.533Z,10.03
2023-02-18T02:27:53.626Z,10.37
2023-02-18T02:28:50.656Z,10.53
2023-02-18T02:30:01.820Z,10.13
2023-02-18T02:30:53.436Z,9.70
2023-02-18T02:32:06.769Z,10.43
2023-02-18T02:33:05.254Z,10.20
2023-02-18T02:34:07.574Z,10.47
2023-02-18T02:34:58.882Z,10.40
2023-02-18T02:36:01.383Z,10.37
2023-02-18T02:36:54.456Z,9.97
2023-02-18T02:38:04.360Z,10.00
2023-02-18T02:38:48.565Z,10.30
2023-02-18T02:39:35.531Z,10.87
2023-02-18T02:40:27.549Z,10.30
2023-02-18T02:41:36.840Z,10.80
2023-02-18T02:42:36.758Z,9.73
2023-02-18T02:43:46.705Z,9.97
2023-02-18T02:44:35.192Z,10.43
2023-02-18T02:45:18.661Z,10.37
2023-02-18T02:46:23.357Z,10.63
2023-02-18T02:47:05.396Z,9.23
2023-02-18T02:47:51.460Z,10.50
2023-02-18T02:48:35.369Z,11.33
2023-02-18T02:49:20.125Z,10.77
2023-02-18T02:50:17.486Z,10.00
2023-02-18T02:50:49.088Z,10.63
2023-02-18T02:51:20.715Z,10.17
2023-02-18T02:51:58.284Z,10.10
2023-02-18T02:52:40.942Z,10.17
2023-02-18T02:53:27.672Z,10.17
2023-02-18T02:54:26.421Z,10.70
2023-02-18T02:54:58.280Z,10.23
2023-02-18T02:55:29.960Z,10.23
2023-02-18T02:56:01.659Z,10.60
2023-02-18T02:56:33.409Z,10.23
2023-02-18T02:57:14.209Z,10.27
2023-02-18T02:57:56.656Z,10.33
2023-02-18T02:58:28.342Z,10.20
2023-02-18T02:59:04.677Z,10.97
2023-02-18T02:59:41.235Z,11.23
2023-02-18T03:00:16.036Z,11.17
2023-02-18T03:00:58.190Z,10.97
2023-02-18T03:01:40.421Z,11.13
2023-02-18T03:02:27.086Z,10.07
2023-02-18T03:03:17.433Z,10.47
2023-02-18T03:04:04.361Z,10.60
2023-02-18T03:04:54.484Z,9.73
2023-02-18T03:05:52.979Z,10.07
2023-02-18T03:06:58.594Z,11.07
2023-02-18T03:07:34.782Z,10.90
2023-02-18T03:08:09.316Z,11.10
2023-02-18T03:08:47.185Z,10.90
2023-02-18T03:09:28.384Z,10.27
2023-02-18T03:10:35.124Z,10.80
2023-02-18T03:11:14.362Z,10.17
2023-02-18T03:12:03.417Z,10.00
2023-02-18T03:13:04.392Z,10.40
2023-02-18T03:13:54.731Z,10.17
2023-02-18T03:14:50.708Z,10.33
2023-02-18T03:15:33.016Z,10.43
2023-02-18T03:16:24.111Z,10.30
2023-02-18T03:17:07.429Z,9.93
2023-02-18T03:18:06.805Z,10.33
2023-02-18T03:18:42.884Z,9.70
2023-02-18T03:19:43.032Z,10.17
2023-02-18T03:20:29.377Z,9.80
2023-02-18T03:21:47.963Z,9.67
2023-02-18T03:22:29.409Z,10.20
2023-02-18T03:23:07.921Z,8.67
2023-02-18T03:24:06.430Z,8.57
2023-02-18T03:24:42.731Z,10.20
2023-02-18T03:25:17.104Z,10.27
2023-02-18T03:25:50.953Z,10.77
2023-02-18T03:26:26.535Z,10.23
2023-02-18T03:27:08.997Z,9.87
2023-02-18T03:27:51.017Z,10.43
2023-02-18T03:28:27.289Z,9.93
2023-02-18T03:29:03.701Z,10.00
2023-02-18T03:29:36.777Z,10.00
2023-02-18T03:30:15.641Z,10.13
2023-02-18T03:31:04.602Z,9.03
2023-02-18T03:31:40.599Z,10.13
2023-02-18T03:32:18.063Z,9.70
2023-02-18T03:32:56.514Z,9.57
2023-02-18T03:33:40.565Z,9.70
2023-02-18T03:34:18.956Z,10.23
2023-02-18T03:34:57.582Z,9.73
2023-02-18T03:35:29.808Z,10.37
2023-02-18T03:36:02.087Z,10.63
2023-02-18T03:36:35.837Z,10.53
2023-02-18T03:37:10.791Z,10.53
2023-02-18T03:37:50.432Z,10.23
2023-02-18T03:38:29.629Z,9.80
2023-02-18T03:39:32.908Z,9.40
2023-02-18T03:40:06.742Z,9.90
2023-02-18T03:40:38.761Z,9.83
2023-02-18T03:41:10.598Z,9.90
2023-02-18T03:41:43.496Z,10.33
2023-02-18T03:42:17.266Z,9.40
2023-02-18T03:42:48.936Z,9.07
2023-02-18T03:43:20.677Z,9.17
2023-02-18T03:44:00.689Z,9.57
2023-02-18T03:44:32.397Z,10.07
2023-02-18T03:45:04.376Z,9.37
2023-02-18T03:45:36.046Z,9.47
2023-02-18T03:46:08.233Z,9.30
2023-02-18T03:46:43.754Z,9.50
2023-02-18T03:47:15.416Z,9.67
2023-02-18T03:47:47.167Z,9.70
2023-02-18T03:48:18.863Z,9.93
2023-02-18T03:48:50.517Z,9.77
2023-02-18T03:49:22.290Z,9.57
2023-02-18T03:49:53.962Z,9.60
2023-02-18T03:50:25.662Z,8.87
2023-02-18T03:50:57.332Z,8.97
2023-02-18T03:51:29.054Z,9.53
2023-02-18T03:52:00.752Z,9.60
2023-02-18T03:52:32.545Z,10.07
2023-02-18T03:53:04.245Z,9.77
2023-02-18T03:53:35.964Z,9.57
2023-02-18T03:54:07.974Z,9.97
2023-02-18T03:54:39.646Z,9.33
2023-02-18T03:55:11.582Z,9.20
2023-02-18T03:55:43.293Z,9.80
2023-02-18T03:56:15.511Z,9.67
2023-02-18T03:56:47.251Z,9.87
2023-02-18T03:57:19.105Z,9.40
2023-02-18T03:57:50.955Z,8.27
2023-02-18T03:58:22.664Z,8.63
2023-02-18T03:58:54.381Z,9.60
2023-02-18T03:59:26.064Z,9.87
2023-02-18T03:59:57.796Z,9.23
2023-02-18T04:00:29.478Z,9.57
2023-02-18T04:01:01.563Z,9.77
2023-02-18T04:01:33.437Z,9.63
2023-02-18T04:02:05.119Z,9.80
2023-02-18T04:02:36.911Z,9.13
2023-02-18T04:03:08.653Z,8.97
2023-02-18T04:03:40.834Z,9.37
2023-02-18T04:04:12.519Z,10.33
2023-02-18T04:04:44.300Z,10.10
2023-02-18T04:05:16.128Z,8.90
2023-02-18T04:05:48.138Z,9.03
2023-02-18T04:06:19.787Z,9.27
2023-02-18T04:06:51.506Z,9.40
2023-02-18T04:07:23.197Z,9.57
2023-02-18T04:07:54.947Z,9.87
2023-02-18T04:08:26.796Z,9.40
2023-02-18T04:08:59.348Z,8.93
2023-02-18T04:09:31.445Z,9.07
2023-02-18T04:10:04.365Z,9.77
2023-02-18T04:10:36.050Z,9.93
2023-02-18T04:11:07.756Z,8.93
2023-02-18T04:11:40.938Z,8.93
2023-02-18T04:12:12.618Z,9.20
2023-02-18T04:12:44.295Z,9.30
2023-02-18T04:13:17.927Z,9.77
2023-02-18T04:13:49.634Z,9.63
2023-02-18T04:14:21.328Z,9.27
2023-02-18T04:14:53.075Z,10.03
2023-02-18T04:15:24.776Z,9.67
2023-02-18T04:15:56.559Z,9.43
2023-02-18T04:16:28.351Z,10.27
2023-02-18T04:17:00.150Z,10.07
2023-02-18T04:17:33.013Z,9.77
2023-02-18T04:18:05.160Z,9.50
2023-02-18T04:18:36.948Z,9.33
2023-02-18T04:19:08.760Z,9.80
2023-02-18T04:19:40.488Z,9.30
2023-02-18T04:20:12.605Z,9.70
2023-02-18T04:20:46.336Z,9.20
2023-02-18T04:21:18.160Z,8.60
2023-02-18T04:21:49.869Z,9.10
2023-02-18T04:22:21.535Z,10.03
2023-02-18T04:22:53.206Z,9.70
2023-02-18T04:23:25.220Z,9.13
2023-02-18T04:23:56.906Z,8.87
2023-02-18T04:24:28.551Z,9.23
2023-02-18T04:25:00.718Z,9.53
2023-02-18T04:25:32.504Z,9.27
2023-02-18T04:26:04.730Z,10.00
2023-02-18T04:26:36.519Z,9.93
2023-02-18T04:27:08.179Z,8.90
2023-02-18T04:27:40.130Z,9.77
2023-02-18T04:28:15.345Z,9.67
2023-02-18T04:28:47.074Z,9.23
2023-02-18T04:29:18.816Z,9.63
2023-02-18T04:29:50.849Z,10.07
2023-02-18T04:30:22.610Z,9.53
2023-02-18T04:30:54.403Z,8.67
2023-02-18T04:31:26.287Z,9.50
2023-02-18T04:31:58.167Z,9.90
2023-02-18T04:32:29.868Z,10.07
2023-02-18T04:33:01.746Z,9.43
2023-02-18T04:33:33.448Z,9.30
2023-02-18T04:34:05.921Z,9.13
2023-02-18T04:34:37.622Z,9.30
2023-02-18T04:35:09.328Z,9.23
2023-02-18T04:35:42.067Z,9.63
2023-02-18T04:36:13.857Z,9.37
2023-02-18T04:36:45.638Z,9.50
2023-02-18T04:37:17.390Z,9.50
2023-02-18T04:37:49.119Z,9.13
2023-02-18T04:38:21.011Z,9.40
2023-02-18T04:38:52.704Z,9.67
2023-02-18T04:39:24.805Z,10.43
2023-02-18T04:39:56.514Z,9.73
2023-02-18T04:40:30.693Z,9.07
2023-02-18T04:41:02.564Z,9.00
2023-02-18T04:41:34.253Z,9.43
2023-02-18T04:42:09.053Z,9.00
2023-02-18T04:42:40.858Z,9.57
2023-02-18T04:43:12.717Z,9.30
2023-02-18T04:43:44.405Z,9.17
2023-02-18T04:44:16.289Z,9.13
2023-02-18T04:44:47.976Z,9.57
2023-02-18T04:45:19.629Z,9.27
2023-02-18T04:45:51.364Z,9.27
2023-02-18T04:46:23.112Z,9.10
2023-02-18T04:46:54.789Z,9.43
2023-02-18T04:47:26.656Z,9.13
2023-02-18T04:47:58.568Z,9.63
2023-02-18T04:48:30.960Z,9.63
2023-02-18T04:49:02.686Z,9.47
2023-02-18T04:49:34.731Z,8.50
2023-02-18T04:50:07.088Z,9.13
2023-02-18T04:50:38.786Z,8.47
2023-02-18T04:51:10.461Z,8.83
2023-02-18T04:51:42.380Z,9.27
2023-02-18T04:52:14.105Z,9.70
2023-02-18T04:52:45.805Z,10.17
2023-02-18T04:53:17.493Z,10.10
2023-02-18T04:53:49.172Z,9.73
2023-02-18T04:54:20.938Z,9.27
2023-02-18T04:54:52.791Z,9.53
2023-02-18T04:55:24.471Z,9.20
2023-02-18T04:55:56.122Z,9.03
2023-02-18T04:56:27.810Z,9.07
2023-02-18T04:56:59.537Z,9.60
2023-02-18T04:57:31.238Z,9.23
2023-02-18T04:58:02.912Z,8.73
2023-02-18T04:58:34.596Z,9.33
2023-02-18T04:59:06.243Z,9.03
2023-02-18T04:59:38.858Z,9.50
2023-02-18T05:00:16.209Z,9.03
2023-02-18T05:00:48.168Z,9.93
2023-02-18T05:01:19.900Z,8.90
2023-02-18T05:01:51.722Z,9.13
2023-02-18T05:02:23.505Z,9.73
2023-02-18T05:02:55.275Z,9.60
2023-02-18T05:03:28.155Z,9.10
2023-02-18T05:03:59.862Z,9.13
2023-02-18T05:04:31.801Z,8.90
2023-02-18T05:05:03.521Z,9.03
2023-02-18T05:05:35.981Z,10.43
2023-02-18T05:06:08.074Z,9.40
2023-02-18T05:06:40.052Z,9.67
2023-02-18T05:07:11.733Z,9.37
2023-02-18T05:07:43.561Z,8.83
2023-02-18T05:08:16.663Z,9.20
2023-02-18T05:08:48.369Z,9.53
2023-02-18T05:09:20.235Z,9.50
2023-02-18T05:09:51.945Z,8.83
2023-02-18T05:10:23.663Z,9.07
2023-02-18T05:10:55.329Z,9.40
2023-02-18T05:11:27.068Z,9.13
2023-02-18T05:11:58.735Z,8.73
2023-02-18T05:12:30.402Z,8.37
2023-02-18T05:13:02.120Z,9.17
2023-02-18T05:13:33.886Z,9.00
2023-02-18T05:14:05.606Z,8.80
2023-02-18T05:14:37.269Z,8.90
2023-02-18T05:15:09.489Z,9.17
2023-02-18T05:15:41.652Z,8.93
2023-02-18T05:16:14.058Z,9.00
2023-02-18T05:16:45.832Z,9.30
2023-02-18T05:17:17.510Z,9.33
2023-02-18T05:17:49.179Z,9.53
2023-02-18T05:18:20.878Z,9.17
2023-02-18T05:18:52.804Z,9.23
2023-02-18T05:19:24.482Z,9.00
2023-02-18T05:19:56.188Z,9.53
2023-02-18T05:20:28.220Z,9.40
2023-02-18T05:21:00.515Z,8.60
2023-02-18T05:21:32.882Z,8.13
2023-02-18T05:22:04.665Z,8.63
2023-02-18T05:22:36.368Z,8.83
2023-02-18T05:23:08.092Z,8.47
2023-02-18T05:23:39.804Z,8.50
2023-02-18T05:24:12.427Z,8.87
2023-02-18T05:24:44.089Z,9.53
2023-02-18T05:25:15.857Z,8.73
2023-02-18T05:25:47.788Z,9.00
2023-02-18T05:26:19.650Z,8.20
2023-02-18T05:26:51.315Z,9.20
2023-02-18T05:27:22.992Z,9.60
2023-02-18T05:27:54.657Z,9.10
2023-02-18T05:28:26.412Z,9.07
2023-02-18T05:28:58.168Z,8.93
2023-02-18T05:29:29.868Z,9.10
2023-02-18T05:30:01.564Z,9.67
2023-02-18T05:30:33.372Z,8.67
2023-02-18T05:31:05.298Z,9.30
2023-02-18T05:31:38.558Z,9.50
2023-02-18T05:32:10.478Z,9.23
2023-02-18T05:32:42.196Z,8.93
2023-02-18T05:33:14.264Z,9.23
2023-02-18T05:33:45.953Z,9.07
2023-02-18T05:34:18.173Z,9.07
2023-02-18T05:34:49.915Z,9.53
2023-02-18T05:35:21.663Z,8.93
2023-02-18T05:35:53.380Z,9.20
2023-02-18T05:36:25.196Z,8.83
2023-02-18T05:36:56.876Z,8.90
2023-02-18T05:37:28.562Z,8.90
2023-02-18T05:38:00.234Z,8.73
2023-02-18T05:38:31.920Z,8.13
2023-02-18T05:39:03.914Z,8.63
2023-02-18T05:39:35.586Z,8.73
2023-02-18T05:40:07.884Z,8.40
2023-02-18T05:40:39.670Z,9.53
2023-02-18T05:41:11.320Z,8.90
2023-02-18T05:41:42.962Z,9.43
2023-02-18T16:46:24.536Z,18.43
2023-02-18T16:46:57.940Z,17.70
2023-02-18T16:47:33.179Z,17.27
2023-02-18T16:48:06.216Z,16.97
2023-02-18T16:48:43.416Z,17.73
2023-02-18T16:49:15.661Z,17.33
2023-02-18T16:49:52.138Z,18.13
2023-02-18T16:50:24.360Z,17.83
2023-02-18T16:50:56.923Z,17.10
2023-02-18T16:51:38.146Z,17.30
2023-02-18T16:52:11.491Z,16.77
2023-02-18T16:52:43.776Z,15.83
2023-02-18T16:53:15.683Z,16.87
2023-02-18T16:53:47.630Z,16.67
2023-02-18T16:54:19.673Z,16.50
2023-02-18T16:54:53.394Z,16.17
2023-02-18T16:55:31.288Z,16.33
2023-02-18T16:56:03.477Z,15.43
2023-02-18T16:56:35.742Z,15.07
2023-02-18T16:57:07.601Z,15.53
2023-02-18T16:57:39.447Z,15.40
2023-02-18T16:58:12.268Z,15.63
2023-02-18T16:58:44.798Z,15.20
2023-02-18T16:59:16.715Z,14.57
2023-02-18T16:59:48.817Z,14.60
2023-02-18T17:00:21.137Z,14.07
2023-02-18T17:00:53.564Z,15.07
2023-02-18T17:01:37.155Z,14.97
2023-02-18T17:02:22.127Z,14.70
2023-02-18T17:02:59.055Z,14.27
2023-02-18T17:03:35.942Z,14.63
2023-02-18T17:04:12.839Z,16.40
2023-02-18T17:04:45.362Z,15.37
2023-02-18T17:05:26.785Z,14.93
2023-02-18T17:06:03.732Z,15.23
2023-02-18T17:06:36.182Z,14.30
2023-02-18T17:07:11.561Z,15.03
2023-02-18T17:07:43.747Z,14.80
2023-02-18T17:08:19.336Z,14.53
2023-02-18T17:08:51.343Z,13.83
2023-02-18T17:09:24.841Z,14.33
2023-02-18T17:09:57.116Z,14.27
2023-02-18T17:10:29.056Z,14.07
2023-02-18T17:11:01.611Z,14.90
2023-02-18T17:11:35.290Z,15.50
2023-02-18T17:12:07.559Z,14.60
2023-02-18T17:12:44.232Z,13.67
2023-02-18T17:13:19.120Z,14.27
2023-02-18T17:13:51.947Z,14.67
2023-02-18T17:14:24.266Z,14.27
2023-02-18T17:14:56.741Z,14.47
2023-02-18T17:15:35.277Z,14.23
2023-02-18T17:16:10.483Z,14.20
2023-02-18T17:16:42.704Z,14.77
2023-02-18T17:17:14.466Z,15.30
2023-02-18T17:17:46.865Z,15.83
2023-02-18T17:18:19.649Z,14.80
2023-02-18T17:18:51.985Z,14.20
2023-02-18T17:19:23.834Z,14.07
2023-02-18T17:19:56.050Z,14.37
2023-02-18T17:20:30.491Z,13.73
2023-02-18T17:21:04.122Z,14.20
2023-02-18T17:21:37.632Z,13.73
2023-02-18T17:22:14.002Z,13.93
2023-02-18T17:22:46.128Z,13.17
2023-02-18T17:23:23.910Z,13.70
2023-02-18T17:23:56.766Z,14.30
2023-02-18T17:24:29.148Z,13.67
2023-02-18T17:25:01.518Z,13.80
2023-02-18T17:25:39.862Z,14.60
2023-02-18T17:26:25.125Z,14.40
2023-02-18T17:26:58.150Z,14.37
2023-02-18T17:27:33.108Z,13.33
2023-02-18T17:28:06.747Z,14.20
2023-02-18T17:28:39.741Z,13.87
2023-02-18T17:29:12.101Z,14.60
2023-02-18T17:29:44.968Z,13.93
2023-02-18T17:30:18.488Z,13.67
2023-02-18T17:30:58.285Z,13.87
2023-02-18T17:31:44.778Z,13.37
2023-02-18T17:32:16.919Z,14.57
2023-02-18T17:32:51.000Z,14.17
2023-02-18T17:33:25.606Z,13.60
2023-02-18T17:34:03.556Z,13.40
2023-02-18T17:34:37.845Z,13.40
2023-02-18T17:35:17.502Z,14.20
2023-02-18T17:35:49.893Z,13.47
2023-02-18T17:36:23.249Z,13.90
2023-02-18T17:36:55.787Z,13.73
2023-02-18T17:37:29.431Z,12.93
2023-02-18T17:38:02.018Z,13.30
2023-02-18T17:38:34.708Z,14.00
2023-02-18T17:39:16.252Z,14.97
2023-02-18T17:39:48.617Z,14.00
2023-02-18T17:40:23.836Z,13.13
2023-02-18T17:40:57.078Z,13.37
2023-02-18T17:41:29.310Z,13.33
2023-02-18T17:42:02.995Z,12.40
2023-02-18T17:42:36.156Z,13.50
2023-02-18T17:43:13.970Z,13.87
2023-02-18T17:43:46.153Z,14.10
2023-02-18T17:44:21.272Z,13.63
2023-02-18T17:44:53.544Z,14.17
2023-02-18T17:45:35.006Z,13.50
2023-02-18T17:46:15.689Z,14.43
2023-02-18T17:46:52.676Z,13.80
2023-02-18T17:47:25.969Z,13.20
2023-02-18T17:48:00.654Z,14.37
2023-02-18T17:48:32.920Z,14.00
2023-02-18T17:49:05.752Z,13.97
2023-02-18T17:49:38.431Z,15.07
2023-02-18T17:50:11.211Z,14.33
2023-02-18T17:50:43.674Z,13.53
2023-02-18T17:51:30.111Z,13.73
2023-02-18T17:52:02.568Z,13.60
2023-02-18T17:52:36.653Z,12.43
2023-02-18T17:53:11.796Z,13.30
2023-02-18T17:53:45.261Z,12.87
2023-02-18T17:54:20.517Z,12.80
2023-02-18T17:54:52.817Z,14.00
2023-02-18T17:55:29.332Z,13.90
2023-02-18T17:56:01.693Z,13.27
2023-02-18T17:56:35.939Z,13.73
2023-02-18T17:57:09.251Z,12.90
2023-02-18T17:57:41.546Z,13.90
2023-02-18T17:58:15.322Z,14.07
2023-02-18T17:58:49.081Z,13.87
